DLH7MH EDLV-EKYT
Flight info
| Callsign | DLH7MH |
|---|---|
| Flight time | 1h 3m |
| Altitude | 37000 |
| Route | ERKUM1R ERKUM L179 MEVEL Y850 JUWGI Z529 RORUS DCT ATTUS DCT ETVOK |
| Aircraft | A321/M-SDE3FGHIRWY/LB1 |
Departure
| Time | 2026-05-01 08:42 |
|---|---|
| Airport | Weeze (Niederrhein) Airport (EDLV) |
Arrival
| Time | 2026-05-01 09:46 |
|---|---|
| Airport | Aalborg Airport (EKYT) |
| Time | Latitude | Longitude | Altitude | Speed | Heading |
|---|---|---|---|---|---|
| 2026-05-01 08:07 | 51.59960 | 6.14736 | 110 ft | 0 kts | 269° |
| 2026-05-01 08:28 | 51.59960 | 6.14740 | 112 ft | 3 kts | 265° |
| 2026-05-01 08:28 | 51.59958 | 6.14769 | 111 ft | 3 kts | 293° |
| 2026-05-01 08:28 | 51.59948 | 6.14794 | 111 ft | 3 kts | 340° |
| 2026-05-01 08:28 | 51.59936 | 6.14797 | 112 ft | 0 kts | 358° |
| 2026-05-01 08:33 | 51.59937 | 6.14797 | 111 ft | 1 kts | 358° |
| 2026-05-01 08:33 | 51.59955 | 6.14796 | 112 ft | 4 kts | 358° |
| 2026-05-01 08:33 | 51.59995 | 6.14795 | 112 ft | 7 kts | 359° |
| 2026-05-01 08:33 | 51.60038 | 6.14764 | 110 ft | 8 kts | 286° |
| 2026-05-01 08:34 | 51.60048 | 6.14653 | 109 ft | 12 kts | 269° |
| 2026-05-01 08:34 | 51.60047 | 6.14506 | 110 ft | 13 kts | 271° |
| 2026-05-01 08:34 | 51.60050 | 6.14353 | 111 ft | 14 kts | 272° |
| 2026-05-01 08:34 | 51.60054 | 6.14184 | 111 ft | 16 kts | 272° |
| 2026-05-01 08:35 | 51.60059 | 6.14000 | 113 ft | 17 kts | 272° |
| 2026-05-01 08:35 | 51.60064 | 6.13809 | 114 ft | 18 kts | 272° |
| 2026-05-01 08:35 | 51.60068 | 6.13589 | 112 ft | 21 kts | 271° |
| 2026-05-01 08:35 | 51.60073 | 6.13343 | 111 ft | 23 kts | 272° |
| 2026-05-01 08:36 | 51.60078 | 6.13067 | 109 ft | 26 kts | 272° |
| 2026-05-01 08:36 | 51.60085 | 6.12782 | 108 ft | 22 kts | 272° |
| 2026-05-01 08:36 | 51.60090 | 6.12576 | 110 ft | 19 kts | 272° |
| 2026-05-01 08:36 | 51.60106 | 6.12462 | 110 ft | 7 kts | 331° |
| 2026-05-01 08:37 | 51.60162 | 6.12458 | 111 ft | 9 kts | 1° |
| 2026-05-01 08:37 | 51.60183 | 6.12459 | 111 ft | 0 kts | 1° |
| 2026-05-01 08:39 | 51.60204 | 6.12459 | 111 ft | 10 kts | 1° |
| 2026-05-01 08:39 | 51.60275 | 6.12492 | 112 ft | 11 kts | 56° |
| 2026-05-01 08:39 | 51.60282 | 6.12570 | 110 ft | 0 kts | 90° |
| 2026-05-01 08:41 | 51.60282 | 6.12572 | 110 ft | 1 kts | 90° |
| 2026-05-01 08:41 | 51.60281 | 6.12619 | 110 ft | 9 kts | 91° |
| 2026-05-01 08:42 | 51.60269 | 6.13120 | 111 ft | 83 kts | 91° |
| 2026-05-01 08:42 | 51.60232 | 6.14400 | 137 ft | 141 kts | 89° |
| 2026-05-01 08:42 | 51.60214 | 6.15824 | 1010 ft | 125 kts | 95° |
| 2026-05-01 08:42 | 51.60230 | 6.17359 | 1411 ft | 149 kts | 96° |
| 2026-05-01 08:43 | 51.60227 | 6.19118 | 1772 ft | 167 kts | 99° |
| 2026-05-01 08:43 | 51.60306 | 6.21114 | 2024 ft | 195 kts | 85° |
| 2026-05-01 08:43 | 51.60650 | 6.23365 | 2255 ft | 220 kts | 82° |
| 2026-05-01 08:43 | 51.61064 | 6.25887 | 2583 ft | 244 kts | 82° |
| 2026-05-01 08:44 | 51.61527 | 6.28574 | 3277 ft | 255 kts | 81° |
| 2026-05-01 08:44 | 51.62028 | 6.31414 | 3880 ft | 265 kts | 79° |
| 2026-05-01 08:44 | 51.62537 | 6.34230 | 4894 ft | 262 kts | 78° |
| 2026-05-01 08:44 | 51.62935 | 6.37091 | 5708 ft | 262 kts | 90° |
| 2026-05-01 08:45 | 51.62896 | 6.40017 | 6521 ft | 262 kts | 95° |
| 2026-05-01 08:45 | 51.62814 | 6.42948 | 7305 ft | 264 kts | 96° |
| 2026-05-01 08:45 | 51.62724 | 6.45911 | 8069 ft | 267 kts | 95° |
| 2026-05-01 08:45 | 51.62632 | 6.48906 | 8862 ft | 269 kts | 95° |
| 2026-05-01 08:46 | 51.62543 | 6.51925 | 9649 ft | 271 kts | 96° |
| 2026-05-01 08:46 | 51.62450 | 6.54967 | 10405 ft | 274 kts | 96° |
| 2026-05-01 08:46 | 51.62349 | 6.58120 | 10727 ft | 292 kts | 96° |
| 2026-05-01 08:46 | 51.62237 | 6.61507 | 10863 ft | 315 kts | 95° |
| 2026-05-01 08:47 | 51.62157 | 6.65123 | 11176 ft | 330 kts | 90° |
| 2026-05-01 08:47 | 51.62502 | 6.68826 | 11722 ft | 339 kts | 77° |
| 2026-05-01 08:47 | 51.63371 | 6.72338 | 12317 ft | 347 kts | 64° |
| 2026-05-01 08:47 | 51.64740 | 6.75584 | 12941 ft | 353 kts | 56° |
| 2026-05-01 08:48 | 51.66215 | 6.78759 | 13593 ft | 356 kts | 56° |
| 2026-05-01 08:48 | 51.67698 | 6.81974 | 14247 ft | 358 kts | 56° |
| 2026-05-01 08:48 | 51.69185 | 6.85211 | 14818 ft | 361 kts | 56° |
| 2026-05-01 08:48 | 51.70684 | 6.88483 | 15383 ft | 364 kts | 56° |
| 2026-05-01 08:49 | 51.72193 | 6.91778 | 15950 ft | 367 kts | 56° |
| 2026-05-01 08:49 | 51.73713 | 6.95103 | 16516 ft | 369 kts | 56° |
| 2026-05-01 08:49 | 51.75241 | 6.98454 | 17072 ft | 372 kts | 56° |
| 2026-05-01 08:49 | 51.76784 | 7.01838 | 17645 ft | 375 kts | 56° |
| 2026-05-01 08:50 | 51.78339 | 7.05246 | 18201 ft | 378 kts | 56° |
| 2026-05-01 08:50 | 51.79905 | 7.08680 | 18734 ft | 381 kts | 55° |
| 2026-05-01 08:50 | 51.81482 | 7.12142 | 19199 ft | 383 kts | 56° |
| 2026-05-01 08:50 | 51.83067 | 7.15632 | 19669 ft | 386 kts | 56° |
| 2026-05-01 08:51 | 51.84660 | 7.19138 | 20108 ft | 388 kts | 55° |
| 2026-05-01 08:51 | 51.86371 | 7.22458 | 20586 ft | 391 kts | 47° |
| 2026-05-01 08:51 | 51.88266 | 7.25655 | 21032 ft | 394 kts | 49° |
| 2026-05-01 08:51 | 51.90167 | 7.28862 | 21509 ft | 395 kts | 47° |
| 2026-05-01 08:52 | 51.92078 | 7.32086 | 21945 ft | 398 kts | 47° |
| 2026-05-01 08:52 | 51.94001 | 7.35338 | 22416 ft | 399 kts | 47° |
| 2026-05-01 08:52 | 51.95923 | 7.38592 | 22892 ft | 401 kts | 47° |
| 2026-05-01 08:52 | 51.97855 | 7.41872 | 23323 ft | 403 kts | 46° |
| 2026-05-01 08:53 | 51.99792 | 7.45167 | 23777 ft | 405 kts | 46° |
| 2026-05-01 08:53 | 52.01746 | 7.48494 | 24155 ft | 408 kts | 46° |
| 2026-05-01 08:53 | 52.03708 | 7.51831 | 24558 ft | 409 kts | 46° |
| 2026-05-01 08:53 | 52.05679 | 7.55187 | 24905 ft | 412 kts | 46° |
| 2026-05-01 08:54 | 52.07653 | 7.58559 | 25298 ft | 413 kts | 46° |
| 2026-05-01 08:54 | 52.09640 | 7.61959 | 25638 ft | 415 kts | 46° |
| 2026-05-01 08:54 | 52.11616 | 7.65315 | 26020 ft | 417 kts | 45° |
| 2026-05-01 08:54 | 52.13642 | 7.68701 | 26337 ft | 419 kts | 45° |
| 2026-05-01 08:55 | 52.15840 | 7.71825 | 26697 ft | 420 kts | 35° |
| 2026-05-01 08:55 | 52.18354 | 7.74264 | 27000 ft | 422 kts | 25° |
| 2026-05-01 08:55 | 52.21099 | 7.75949 | 27358 ft | 423 kts | 15° |
| 2026-05-01 08:55 | 52.23998 | 7.76859 | 27689 ft | 425 kts | 6° |
| 2026-05-01 08:56 | 52.26952 | 7.77346 | 28034 ft | 427 kts | 6° |
| 2026-05-01 08:56 | 52.29914 | 7.77823 | 28389 ft | 429 kts | 5° |
| 2026-05-01 08:56 | 52.32890 | 7.78297 | 28714 ft | 431 kts | 5° |
| 2026-05-01 08:56 | 52.35860 | 7.78997 | 29053 ft | 432 kts | 12° |
| 2026-05-01 08:57 | 52.38803 | 7.80085 | 29378 ft | 435 kts | 12° |
| 2026-05-01 08:57 | 52.41757 | 7.81176 | 29684 ft | 436 kts | 12° |
| 2026-05-01 08:57 | 52.44726 | 7.82270 | 29990 ft | 438 kts | 12° |
| 2026-05-01 08:57 | 52.47707 | 7.83371 | 30274 ft | 440 kts | 12° |
| 2026-05-01 08:58 | 52.50699 | 7.84478 | 30542 ft | 441 kts | 12° |
| 2026-05-01 08:58 | 52.53705 | 7.85590 | 30761 ft | 443 kts | 12° |
| 2026-05-01 08:58 | 52.56713 | 7.86706 | 31028 ft | 443 kts | 12° |
| 2026-05-01 08:58 | 52.59721 | 7.87822 | 31341 ft | 442 kts | 12° |
| 2026-05-01 08:59 | 52.62719 | 7.88939 | 31641 ft | 442 kts | 12° |
| 2026-05-01 08:59 | 52.65716 | 7.90053 | 31947 ft | 441 kts | 12° |
| 2026-05-01 08:59 | 52.68706 | 7.91161 | 32238 ft | 440 kts | 12° |
| 2026-05-01 08:59 | 52.71692 | 7.92267 | 32547 ft | 440 kts | 12° |
| 2026-05-01 09:00 | 52.74676 | 7.93381 | 32856 ft | 439 kts | 12° |
| 2026-05-01 09:00 | 52.77651 | 7.94500 | 33144 ft | 438 kts | 12° |
| 2026-05-01 09:00 | 52.80628 | 7.95617 | 33372 ft | 438 kts | 12° |
| 2026-05-01 09:00 | 52.83576 | 7.96721 | 33417 ft | 431 kts | 12° |
| 2026-05-01 09:01 | 52.89398 | 7.98910 | 33395 ft | 432 kts | 12° |
| 2026-05-01 09:01 | 52.95347 | 8.01158 | 33410 ft | 444 kts | 12° |
| 2026-05-01 09:02 | 53.01364 | 8.03432 | 33414 ft | 447 kts | 12° |
| 2026-05-01 09:02 | 53.07433 | 8.05737 | 33412 ft | 447 kts | 13° |
| 2026-05-01 09:03 | 53.13499 | 8.08046 | 33409 ft | 447 kts | 12° |
| 2026-05-01 09:03 | 53.19566 | 8.10357 | 33414 ft | 448 kts | 12° |
| 2026-05-01 09:04 | 53.25640 | 8.12677 | 33413 ft | 448 kts | 13° |
| 2026-05-01 09:04 | 53.31676 | 8.15000 | 33415 ft | 448 kts | 13° |
| 2026-05-01 09:05 | 53.37751 | 8.17341 | 33413 ft | 448 kts | 13° |
| 2026-05-01 09:05 | 53.43813 | 8.19681 | 33418 ft | 447 kts | 12° |
| 2026-05-01 09:06 | 53.49892 | 8.22030 | 33414 ft | 448 kts | 13° |
| 2026-05-01 09:06 | 53.55975 | 8.24391 | 33413 ft | 448 kts | 13° |
| 2026-05-01 09:07 | 53.62057 | 8.26762 | 33418 ft | 448 kts | 13° |
| 2026-05-01 09:07 | 53.68128 | 8.29144 | 33420 ft | 448 kts | 13° |
| 2026-05-01 09:08 | 53.74213 | 8.31526 | 33412 ft | 449 kts | 13° |
| 2026-05-01 09:08 | 53.80298 | 8.33911 | 33421 ft | 449 kts | 13° |
| 2026-05-01 09:09 | 53.86360 | 8.36304 | 33422 ft | 450 kts | 13° |
| 2026-05-01 09:09 | 53.92468 | 8.38718 | 33429 ft | 450 kts | 13° |
| 2026-05-01 09:10 | 53.98568 | 8.41131 | 33431 ft | 450 kts | 13° |
| 2026-05-01 09:10 | 54.04689 | 8.43557 | 33429 ft | 451 kts | 13° |
| 2026-05-01 09:11 | 54.10800 | 8.46003 | 33436 ft | 451 kts | 13° |
| 2026-05-01 09:11 | 54.16873 | 8.48441 | 33439 ft | 451 kts | 13° |
| 2026-05-01 09:12 | 54.22986 | 8.50894 | 33437 ft | 451 kts | 13° |
| 2026-05-01 09:12 | 54.29099 | 8.53356 | 33429 ft | 452 kts | 13° |
| 2026-05-01 09:13 | 54.35223 | 8.55812 | 33446 ft | 452 kts | 13° |
| 2026-05-01 09:13 | 54.41338 | 8.58285 | 33443 ft | 452 kts | 13° |
| 2026-05-01 09:14 | 54.47455 | 8.60783 | 33436 ft | 452 kts | 14° |
| 2026-05-01 09:14 | 54.53572 | 8.63292 | 33440 ft | 452 kts | 14° |
| 2026-05-01 09:15 | 54.59692 | 8.65794 | 33439 ft | 452 kts | 14° |
| 2026-05-01 09:15 | 54.65821 | 8.68297 | 33439 ft | 452 kts | 14° |
| 2026-05-01 09:16 | 54.71947 | 8.70813 | 33423 ft | 452 kts | 14° |
| 2026-05-01 09:17 | 54.81143 | 8.74599 | 33437 ft | 453 kts | 14° |
| 2026-05-01 09:17 | 54.90113 | 8.78326 | 33432 ft | 433 kts | 14° |
| 2026-05-01 09:18 | 54.98898 | 8.81611 | 33421 ft | 432 kts | 12° |
| 2026-05-01 09:19 | 55.07498 | 8.86188 | 33429 ft | 431 kts | 20° |
| 2026-05-01 09:20 | 55.15988 | 8.91445 | 33440 ft | 432 kts | 20° |
| 2026-05-01 09:21 | 55.27337 | 8.98486 | 33420 ft | 433 kts | 20° |
| 2026-05-01 09:21 | 55.35866 | 9.03822 | 33424 ft | 434 kts | 20° |
| 2026-05-01 09:22 | 55.41565 | 9.07386 | 33138 ft | 436 kts | 20° |
| 2026-05-01 09:22 | 55.47285 | 9.10978 | 32146 ft | 438 kts | 20° |
| 2026-05-01 09:23 | 55.50161 | 9.12796 | 31607 ft | 440 kts | 20° |
| 2026-05-01 09:23 | 55.55872 | 9.16399 | 30529 ft | 437 kts | 20° |
| 2026-05-01 09:24 | 55.61555 | 9.19999 | 29304 ft | 431 kts | 20° |
| 2026-05-01 09:24 | 55.64365 | 9.21786 | 28674 ft | 428 kts | 20° |
| 2026-05-01 09:24 | 55.69930 | 9.25336 | 27475 ft | 422 kts | 20° |
| 2026-05-01 09:25 | 55.75427 | 9.28845 | 26336 ft | 416 kts | 20° |
| 2026-05-01 09:25 | 55.80849 | 9.32320 | 25255 ft | 411 kts | 20° |
| 2026-05-01 09:26 | 55.83534 | 9.34044 | 24719 ft | 409 kts | 20° |
| 2026-05-01 09:26 | 55.88836 | 9.37448 | 23674 ft | 405 kts | 20° |
| 2026-05-01 09:26 | 55.91476 | 9.39152 | 23074 ft | 403 kts | 20° |
| 2026-05-01 09:27 | 55.96711 | 9.42533 | 21950 ft | 397 kts | 19° |
| 2026-05-01 09:27 | 55.99301 | 9.44210 | 21409 ft | 394 kts | 19° |
| 2026-05-01 09:27 | 56.01870 | 9.45875 | 20879 ft | 391 kts | 19° |
| 2026-05-01 09:28 | 56.03567 | 9.46973 | 20536 ft | 390 kts | 19° |
| 2026-05-01 09:28 | 56.06102 | 9.48614 | 20027 ft | 386 kts | 19° |
| 2026-05-01 09:28 | 56.08620 | 9.50251 | 19533 ft | 384 kts | 19° |
| 2026-05-01 09:28 | 56.11126 | 9.51883 | 19053 ft | 382 kts | 19° |
| 2026-05-01 09:29 | 56.16089 | 9.55122 | 18018 ft | 377 kts | 19° |
| 2026-05-01 09:29 | 56.18542 | 9.56723 | 17495 ft | 375 kts | 19° |
| 2026-05-01 09:30 | 56.23413 | 9.59924 | 16485 ft | 371 kts | 19° |
| 2026-05-01 09:30 | 56.25828 | 9.61522 | 15992 ft | 369 kts | 19° |
| 2026-05-01 09:30 | 56.30635 | 9.64688 | 15035 ft | 366 kts | 19° |
| 2026-05-01 09:31 | 56.33019 | 9.66255 | 14570 ft | 364 kts | 19° |
| 2026-05-01 09:31 | 56.35366 | 9.67804 | 14110 ft | 363 kts | 19° |
| 2026-05-01 09:31 | 56.40074 | 9.70939 | 13381 ft | 359 kts | 20° |
| 2026-05-01 09:32 | 56.42416 | 9.72495 | 13397 ft | 360 kts | 19° |
| 2026-05-01 09:32 | 56.47123 | 9.75605 | 13403 ft | 360 kts | 19° |
| 2026-05-01 09:32 | 56.49480 | 9.77173 | 13399 ft | 361 kts | 19° |
| 2026-05-01 09:33 | 56.51838 | 9.78747 | 13161 ft | 362 kts | 19° |
| 2026-05-01 09:33 | 56.54195 | 9.80315 | 12668 ft | 358 kts | 19° |
| 2026-05-01 09:33 | 56.58829 | 9.83396 | 11719 ft | 352 kts | 19° |
| 2026-05-01 09:34 | 56.61082 | 9.85120 | 11266 ft | 351 kts | 26° |
| 2026-05-01 09:34 | 56.63254 | 9.87093 | 10822 ft | 348 kts | 27° |
| 2026-05-01 09:34 | 56.67525 | 9.91123 | 9912 ft | 342 kts | 27° |
| 2026-05-01 09:35 | 56.69591 | 9.93096 | 9644 ft | 328 kts | 27° |
| 2026-05-01 09:35 | 56.73548 | 9.96854 | 8839 ft | 314 kts | 26° |
| 2026-05-01 09:35 | 56.75462 | 9.98668 | 8466 ft | 307 kts | 26° |
| 2026-05-01 09:36 | 56.77336 | 10.00450 | 8101 ft | 299 kts | 26° |
| 2026-05-01 09:36 | 56.79183 | 10.02203 | 7750 ft | 297 kts | 26° |
| 2026-05-01 09:36 | 56.81007 | 10.03932 | 7402 ft | 294 kts | 26° |
| 2026-05-01 09:36 | 56.82815 | 10.05649 | 7053 ft | 292 kts | 26° |
| 2026-05-01 09:37 | 56.84612 | 10.07353 | 6724 ft | 289 kts | 26° |
| 2026-05-01 09:37 | 56.88135 | 10.10710 | 6028 ft | 285 kts | 26° |
| 2026-05-01 09:37 | 56.89889 | 10.12385 | 5684 ft | 284 kts | 26° |
| 2026-05-01 09:38 | 56.93378 | 10.15716 | 5003 ft | 281 kts | 26° |
| 2026-05-01 09:38 | 56.95105 | 10.17371 | 4658 ft | 279 kts | 26° |
| 2026-05-01 09:38 | 56.96822 | 10.19019 | 4335 ft | 277 kts | 26° |
| 2026-05-01 09:39 | 57.00224 | 10.22288 | 3683 ft | 275 kts | 26° |
| 2026-05-01 09:39 | 57.01915 | 10.23918 | 3352 ft | 273 kts | 26° |
| 2026-05-01 09:39 | 57.03600 | 10.25523 | 3063 ft | 270 kts | 22° |
| 2026-05-01 09:40 | 57.05353 | 10.26359 | 3000 ft | 253 kts | 4° |
| 2026-05-01 09:40 | 57.08655 | 10.26902 | 3000 ft | 229 kts | 356° |
| 2026-05-01 09:40 | 57.10239 | 10.26692 | 2788 ft | 226 kts | 341° |
| 2026-05-01 09:41 | 57.11516 | 10.25329 | 2490 ft | 211 kts | 305° |
| 2026-05-01 09:41 | 57.11699 | 10.20424 | 2045 ft | 191 kts | 262° |
| 2026-05-01 09:41 | 57.11544 | 10.18020 | 1997 ft | 188 kts | 264° |
| 2026-05-01 09:42 | 57.11399 | 10.15636 | 2002 ft | 187 kts | 263° |
| 2026-05-01 09:42 | 57.11256 | 10.13293 | 2010 ft | 176 kts | 263° |
| 2026-05-01 09:42 | 57.11007 | 10.09257 | 2022 ft | 149 kts | 263° |
| 2026-05-01 09:43 | 57.10752 | 10.05160 | 1879 ft | 159 kts | 263° |
| 2026-05-01 09:43 | 57.10630 | 10.03211 | 1708 ft | 148 kts | 264° |
| 2026-05-01 09:43 | 57.10516 | 10.01394 | 1512 ft | 141 kts | 263° |
| 2026-05-01 09:44 | 57.10300 | 9.97952 | 1166 ft | 133 kts | 262° |
| 2026-05-01 09:44 | 57.10195 | 9.96275 | 988 ft | 131 kts | 262° |
| 2026-05-01 09:44 | 57.10089 | 9.94596 | 811 ft | 133 kts | 262° |
| 2026-05-01 09:45 | 57.09982 | 9.92913 | 632 ft | 133 kts | 261° |
| 2026-05-01 09:45 | 57.09769 | 9.89557 | 265 ft | 131 kts | 262° |
| 2026-05-01 09:45 | 57.09663 | 9.87891 | 89 ft | 131 kts | 262° |
| 2026-05-01 09:46 | 57.09557 | 9.86314 | 19 ft | 102 kts | 261° |
| 2026-05-01 09:46 | 57.09518 | 9.85754 | 19 ft | 21 kts | 267° |
| 2026-05-01 09:46 | 57.09482 | 9.85700 | 19 ft | 6 kts | 167° |
| 2026-05-01 09:46 | 57.09436 | 9.85757 | 19 ft | 10 kts | 140° |
| 2026-05-01 09:47 | 57.09374 | 9.85847 | 19 ft | 13 kts | 142° |
| 2026-05-01 09:47 | 57.09281 | 9.85973 | 19 ft | 23 kts | 144° |
| 2026-05-01 09:47 | 57.09142 | 9.86165 | 19 ft | 26 kts | 143° |
| 2026-05-01 09:47 | 57.08995 | 9.86371 | 19 ft | 27 kts | 142° |
| 2026-05-01 09:48 | 57.08872 | 9.86552 | 19 ft | 20 kts | 141° |
| 2026-05-01 09:48 | 57.08781 | 9.86687 | 19 ft | 14 kts | 141° |
| 2026-05-01 09:48 | 57.08700 | 9.86807 | 19 ft | 16 kts | 140° |
| 2026-05-01 09:48 | 57.08646 | 9.86895 | 19 ft | 9 kts | 137° |
| 2026-05-01 09:49 | 57.08642 | 9.86948 | 19 ft | 4 kts | 30° |
| 2026-05-01 09:49 | 57.08666 | 9.86986 | 21 ft | 5 kts | 46° |
| 2026-05-01 09:49 | 57.08675 | 9.87010 | 19 ft | 0 kts | 54° |